ADDS METAR Data INFO
IDs: Format: Raw Decoded Include TAF

Data at: 1902 UTC 21 Apr 2018

METAR for:LFQA (Reims/Prunay Aprt, --, FR)
Text:LFQA 211830Z AUTO 02003KT CAVOK 19/14 Q1016
Temperature: 19.0°C ( 66°F)
Dewpoint: 14.0°C ( 57°F) [RH = 73%]
Pressure (altimeter):30.00 inches Hg (1016.0 mb)
Winds:from the NNE (20 degrees) at 3 MPH (3 knots; 1.5 m/s)
Visibility:6 or more sm (10+ km)
Ceiling:ceiling and visibility are OK
Clouds:unknown

TAF for:LFQA (Reims/Prunay Aprt, --, FR)
Text:No data found